Time;durP1;ratioP1;P1;durP2;ratioP2;P2;SDS_P1;SDS_P2;PMS_P1;PMS_P2;Temp;Humidity;BMP_temperature;BMP_pressure;BME280_temperature;BME280_humidity;BME280_pressure;Samples;Min_cycle;Max_cycle;Signal;HPM_P1;HPM_P2
2021/11/18 00:01:25;;;;;;;25.27;11.50;;;6.60;99.90;;;;;;5037660;28;20509;-85
2021/11/18 00:03:52;;;;;;;28.50;13.90;;;6.70;99.90;;;;;;5038195;28;20452;-86
2021/11/18 00:06:20;;;;;;;27.40;13.27;;;6.70;99.90;;;;;;5036660;28;20526;-86
2021/11/18 00:08:47;;;;;;;27.13;12.27;;;6.80;99.90;;;;;;5038029;28;20491;-86
2021/11/18 00:11:17;;;;;;;24.50;11.90;;;6.80;99.90;;;;;;5037102;28;20452;-86
2021/11/18 00:13:46;;;;;;;29.60;12.93;;;6.90;99.90;;;;;;5036165;28;20562;-86
2021/11/18 00:16:13;;;;;;;27.67;12.00;;;6.80;99.90;;;;;;5036369;28;20508;-85
2021/11/18 00:18:41;;;;;;;26.03;11.60;;;6.80;99.90;;;;;;5037780;28;20550;-86
2021/11/18 00:21:10;;;;;;;28.43;12.30;;;6.90;99.90;;;;;;5035185;28;20491;-86
2021/11/18 00:23:40;;;;;;;26.33;12.63;;;6.90;99.90;;;;;;5034956;28;20486;-85
2021/11/18 00:26:08;;;;;;;23.57;11.97;;;6.90;99.90;;;;;;5031610;28;20453;-85
2021/11/18 00:28:35;;;;;;;30.50;13.30;;;6.80;99.90;;;;;;5035620;28;20467;-85
2021/11/18 00:31:04;;;;;;;33.03;13.53;;;6.80;99.90;;;;;;5028539;28;20453;-86
2021/11/18 00:33:30;;;;;;;28.33;12.67;;;6.80;99.90;;;;;;5035290;28;20548;-86
2021/11/18 00:35:57;;;;;;;28.90;11.97;;;6.80;99.90;;;;;;5028228;28;20452;-85
2021/11/18 00:38:24;;;;;;;23.70;11.53;;;6.80;99.90;;;;;;5034928;28;20464;-85
2021/11/18 00:40:54;;;;;;;23.40;12.33;;;6.80;99.90;;;;;;5035130;28;20497;-86
2021/11/18 00:43:22;;;;;;;35.33;11.57;;;6.90;99.90;;;;;;5036533;28;20491;-85
2021/11/18 00:45:52;;;;;;;30.50;12.90;;;6.90;99.90;;;;;;5034833;28;20555;-85
2021/11/18 00:48:19;;;;;;;23.90;10.63;;;6.80;99.90;;;;;;5037006;28;20916;-86
2021/11/18 00:50:49;;;;;;;30.87;12.23;;;6.70;99.90;;;;;;5040999;28;20441;-85
2021/11/18 00:53:16;;;;;;;20.23;11.03;;;6.70;99.90;;;;;;5041073;28;20468;-85
2021/11/18 00:55:42;;;;;;;24.30;11.10;;;6.70;99.90;;;;;;5035855;28;20456;-86
2021/11/18 00:58:12;;;;;;;23.90;11.47;;;6.60;99.90;;;;;;5039305;28;20524;-85
2021/11/18 01:00:41;;;;;;;22.20;11.27;;;6.50;99.90;;;;;;5036763;28;20495;-85
2021/11/18 01:03:09;;;;;;;27.27;9.23;;;6.60;99.90;;;;;;5033306;28;20468;-85
2021/11/18 01:05:39;;;;;;;21.23;10.67;;;6.60;99.90;;;;;;5038319;28;20470;-87
2021/11/18 01:08:07;;;;;;;17.57;10.20;;;6.50;99.90;;;;;;5025970;28;20452;-85
2021/11/18 01:10:39;;;;;;;27.10;11.87;;;6.40;99.90;;;;;;5035603;28;20450;-85
2021/11/18 01:13:07;;;;;;;23.57;11.47;;;6.30;99.90;;;;;;5017824;28;20583;-85
2021/11/18 01:15:37;;;;;;;24.20;10.57;;;6.30;99.90;;;;;;5019003;28;20445;-85
2021/11/18 01:18:05;;;;;;;31.47;12.70;;;6.30;99.90;;;;;;5039275;28;20991;-85
2021/11/18 01:20:33;;;;;;;25.80;11.90;;;6.20;99.90;;;;;;5040208;28;20452;-85
2021/11/18 01:23:02;;;;;;;21.47;10.77;;;6.10;99.90;;;;;;5039427;28;20475;-85
2021/11/18 01:25:30;;;;;;;31.83;14.60;;;6.10;99.90;;;;;;5043240;28;20458;-85
2021/11/18 01:27:57;;;;;;;22.83;11.27;;;6.00;99.90;;;;;;5045335;28;20460;-85
2021/11/18 01:30:25;;;;;;;23.20;11.90;;;6.00;99.90;;;;;;5046850;28;20498;-85
2021/11/18 01:32:55;;;;;;;19.30;10.80;;;6.00;99.90;;;;;;5045412;28;20494;-85
2021/11/18 01:35:22;;;;;;;33.00;13.60;;;6.10;99.90;;;;;;5046157;28;20542;-85
2021/11/18 01:37:49;;;;;;;21.67;10.80;;;6.00;99.90;;;;;;5046287;28;20457;-85
2021/11/18 01:40:19;;;;;;;25.83;12.83;;;6.00;99.90;;;;;;5043808;28;20451;-85
2021/11/18 01:42:47;;;;;;;20.33;11.20;;;6.00;99.90;;;;;;5041432;28;20540;-85
2021/11/18 01:45:14;;;;;;;21.73;11.50;;;6.00;99.90;;;;;;5042341;28;20472;-85
2021/11/18 01:47:41;;;;;;;31.23;16.10;;;6.00;99.90;;;;;;5041114;28;20456;-85
2021/11/18 01:50:17;;;;;;;29.77;12.90;;;6.00;99.90;;;;;;5038506;28;20474;-85
2021/11/18 01:52:47;;;;;;;25.27;12.10;;;6.00;99.90;;;;;;5034547;28;20474;-86
2021/11/18 01:55:15;;;;;;;24.57;12.70;;;6.00;99.90;;;;;;5042015;28;20475;-85
2021/11/18 01:57:42;;;;;;;22.90;12.77;;;6.10;99.90;;;;;;5042646;28;20456;-85
2021/11/18 02:00:12;;;;;;;27.30;14.03;;;6.00;99.90;;;;;;5042551;28;20455;-86
2021/11/18 02:02:39;;;;;;;27.47;14.07;;;6.10;99.90;;;;;;5049568;28;20555;-84
2021/11/18 02:05:16;;;;;;;33.07;14.67;;;6.10;99.90;;;;;;5055119;28;20983;-86
2021/11/18 02:07:45;;;;;;;38.60;17.87;;;6.10;99.90;;;;;;5042969;28;20828;-85
2021/11/18 02:10:13;;;;;;;27.33;12.90;;;6.20;99.90;;;;;;5040944;28;20995;-85
2021/11/18 02:12:40;;;;;;;26.63;14.40;;;6.20;99.90;;;;;;5042287;28;20478;-85
2021/11/18 02:15:17;;;;;;;24.43;13.10;;;6.30;99.90;;;;;;5041447;28;20456;-85
2021/11/18 02:17:44;;;;;;;30.17;13.97;;;6.20;99.90;;;;;;5041731;28;20463;-85
2021/11/18 02:20:21;;;;;;;22.90;12.83;;;6.10;99.90;;;;;;5041342;28;20550;-85
2021/11/18 02:22:48;;;;;;;25.63;12.67;;;6.10;99.90;;;;;;5041987;28;20489;-85
2021/11/18 02:25:16;;;;;;;29.07;12.57;;;6.20;99.90;;;;;;5042508;28;20985;-85
2021/11/18 02:27:42;;;;;;;26.70;13.30;;;6.10;99.90;;;;;;5041950;28;20855;-82
2021/11/18 02:30:10;;;;;;;29.40;15.73;;;6.10;99.90;;;;;;5044709;28;20460;-84
2021/11/18 02:32:40;;;;;;;32.23;14.20;;;6.10;99.90;;;;;;5043558;28;20467;-84
2021/11/18 02:35:12;;;;;;;22.67;13.97;;;6.20;99.90;;;;;;5044740;28;20487;-84
2021/11/18 02:37:40;;;;;;;31.47;16.70;;;6.20;99.90;;;;;;5041290;28;20458;-84
2021/11/18 02:40:09;;;;;;;34.13;16.00;;;6.20;99.90;;;;;;5040389;28;20533;-85
2021/11/18 02:42:36;;;;;;;29.93;15.30;;;6.20;99.90;;;;;;5039788;28;20487;-84
2021/11/18 02:45:06;;;;;;;27.90;15.13;;;6.20;99.90;;;;;;5040441;28;20455;-85
2021/11/18 02:47:32;;;;;;;32.93;13.53;;;6.20;99.90;;;;;;5038091;28;20477;-84
2021/11/18 02:49:59;;;;;;;29.70;14.83;;;6.10;99.90;;;;;;5040169;28;20848;-84
2021/11/18 02:52:28;;;;;;;30.47;16.80;;;6.10;99.90;;;;;;5039692;28;20479;-85
2021/11/18 02:54:58;;;;;;;33.07;15.13;;;6.10;99.90;;;;;;5042170;28;20458;-85
2021/11/18 02:57:25;;;;;;;31.47;13.27;;;6.10;99.90;;;;;;5040427;28;20903;-84
2021/11/18 02:59:52;;;;;;;24.53;13.70;;;6.10;99.90;;;;;;5037018;28;20449;-85
2021/11/18 03:02:19;;;;;;;39.37;16.00;;;6.10;99.90;;;;;;5037687;28;20515;-85
2021/11/18 03:04:46;;;;;;;25.53;14.00;;;6.10;99.90;;;;;;5037806;28;20534;-85
2021/11/18 03:07:13;;;;;;;25.50;12.57;;;6.00;99.90;;;;;;5031118;28;20457;-85
2021/11/18 03:09:39;;;;;;;21.43;12.87;;;6.00;99.90;;;;;;5040259;28;20462;-85
2021/11/18 03:12:08;;;;;;;22.07;13.57;;;6.00;99.90;;;;;;5038155;28;20470;-85
2021/11/18 03:14:35;;;;;;;33.03;13.90;;;5.90;99.90;;;;;;5039743;28;20457;-85
2021/11/18 03:17:02;;;;;;;25.67;13.00;;;5.90;99.90;;;;;;5040875;28;20476;-85
2021/11/18 03:19:29;;;;;;;29.67;14.23;;;6.00;99.90;;;;;;5040686;28;20463;-85
2021/11/18 03:21:56;;;;;;;24.40;12.87;;;6.00;99.90;;;;;;5039690;28;20496;-86
2021/11/18 03:24:24;;;;;;;37.67;16.23;;;6.00;99.90;;;;;;5040194;28;20449;-85
2021/11/18 03:26:51;;;;;;;26.70;14.43;;;5.90;99.90;;;;;;5038735;28;20462;-85
2021/11/18 03:29:19;;;;;;;27.43;13.97;;;5.90;99.90;;;;;;5039514;28;20461;-85
2021/11/18 03:31:46;;;;;;;32.50;14.40;;;5.90;99.90;;;;;;5038188;28;20450;-85
2021/11/18 03:34:19;;;;;;;27.90;13.77;;;5.90;99.90;;;;;;5040743;28;20450;-85
2021/11/18 03:36:46;;;;;;;31.50;14.10;;;5.90;99.90;;;;;;5040867;28;20491;-85
2021/11/18 03:39:13;;;;;;;26.23;14.07;;;6.00;99.90;;;;;;5039476;28;20460;-85
2021/11/18 03:41:43;;;;;;;24.10;12.70;;;6.00;99.90;;;;;;5037465;28;20494;-85
2021/11/18 03:44:11;;;;;;;30.83;13.20;;;5.90;99.90;;;;;;5038636;28;21046;-85
2021/11/18 03:46:42;;;;;;;30.17;13.10;;;5.80;99.90;;;;;;5037113;28;20483;-85
2021/11/18 03:49:11;;;;;;;29.13;13.60;;;5.80;99.90;;;;;;5038548;28;20453;-84
2021/11/18 03:51:38;;;;;;;33.47;14.90;;;5.80;99.90;;;;;;5035379;28;20450;-84
2021/11/18 03:54:07;;;;;;;22.00;12.87;;;5.80;99.90;;;;;;5037104;28;20463;-84
2021/11/18 03:56:39;;;;;;;37.33;15.17;;;5.80;99.90;;;;;;5043368;28;20542;-84
2021/11/18 03:59:06;;;;;;;25.23;14.00;;;5.80;99.90;;;;;;5047553;28;20484;-84
2021/11/18 04:01:35;;;;;;;28.17;13.10;;;5.70;99.90;;;;;;5033728;28;20482;-84
2021/11/18 04:04:04;;;;;;;28.50;13.00;;;5.70;99.90;;;;;;5042360;28;20461;-84
2021/11/18 04:06:31;;;;;;;19.97;12.30;;;5.60;99.90;;;;;;5046822;28;20455;-84
2021/11/18 04:08:58;;;;;;;24.97;11.27;;;5.60;99.90;;;;;;5049529;28;20522;-84
2021/11/18 04:11:25;;;;;;;24.70;12.77;;;5.50;99.90;;;;;;5049268;28;20441;-84
2021/11/18 04:13:52;;;;;;;20.97;11.47;;;5.50;99.90;;;;;;5038050;28;20472;-85
2021/11/18 04:16:19;;;;;;;26.50;11.57;;;5.50;99.90;;;;;;5037857;28;20442;-85
2021/11/18 04:18:46;;;;;;;31.70;12.10;;;5.50;99.90;;;;;;5038586;28;20813;-85
2021/11/18 04:21:14;;;;;;;24.70;11.40;;;5.40;99.90;;;;;;5038123;28;20473;-86
2021/11/18 04:23:41;;;;;;;22.27;12.50;;;5.40;99.90;;;;;;5038009;28;21021;-85
2021/11/18 04:26:08;;;;;;;23.33;12.20;;;5.40;99.90;;;;;;5038350;28;20460;-84
2021/11/18 04:28:35;;;;;;;24.07;11.17;;;5.50;99.90;;;;;;5040339;28;20466;-85
2021/11/18 04:31:06;;;;;;;22.40;11.07;;;5.50;99.90;;;;;;5040922;28;20450;-85
2021/11/18 04:33:34;;;;;;;30.10;12.50;;;5.50;99.90;;;;;;5037034;28;20471;-83
2021/11/18 04:36:02;;;;;;;32.73;12.80;;;5.60;99.90;;;;;;5035925;28;20459;-84
2021/11/18 04:38:31;;;;;;;26.47;14.10;;;5.60;99.90;;;;;;5036782;28;20450;-84
2021/11/18 04:40:58;;;;;;;49.77;17.37;;;5.70;99.90;;;;;;5035189;28;20823;-83
2021/11/18 04:43:26;;;;;;;43.20;16.53;;;5.80;99.90;;;;;;5027612;28;20499;-84
2021/11/18 04:45:53;;;;;;;42.80;16.87;;;5.80;99.90;;;;;;5040049;28;20477;-84
2021/11/18 04:48:20;;;;;;;37.97;13.57;;;5.90;99.90;;;;;;5039545;28;20460;-85
2021/11/18 04:50:47;;;;;;;35.77;14.20;;;6.00;99.90;;;;;;5034117;28;20470;-84
2021/11/18 04:53:14;;;;;;;38.20;14.60;;;6.10;99.90;;;;;;5029850;28;20478;-85
2021/11/18 04:55:44;;;;;;;33.80;12.50;;;6.10;99.90;;;;;;5037141;28;20462;-84
2021/11/18 04:58:12;;;;;;;38.53;16.23;;;6.20;99.90;;;;;;5038293;28;20455;-84
2021/11/18 05:00:42;;;;;;;29.50;13.57;;;6.20;99.90;;;;;;5037476;28;20447;-84
2021/11/18 05:03:09;;;;;;;48.17;16.80;;;6.20;99.90;;;;;;5038178;28;20487;-84
2021/11/18 05:05:36;;;;;;;36.73;14.60;;;6.30;99.90;;;;;;5031069;28;20463;-84
2021/11/18 05:08:03;;;;;;;43.20;15.13;;;6.30;99.90;;;;;;5041915;28;20761;-84
2021/11/18 05:10:31;;;;;;;48.93;16.00;;;6.30;99.90;;;;;;5036610;28;20462;-84
2021/11/18 05:12:59;;;;;;;48.53;15.60;;;6.30;99.90;;;;;;5035764;28;21129;-82
2021/11/18 05:15:35;;;;;;;43.60;15.10;;;6.40;99.90;;;;;;5033684;28;20455;-83
2021/11/18 05:18:02;;;;;;;38.03;15.60;;;6.30;99.90;;;;;;5028154;28;20477;-83
2021/11/18 05:20:28;;;;;;;42.93;15.33;;;6.30;99.90;;;;;;5031724;28;20456;-84
2021/11/18 05:22:55;;;;;;;36.87;14.10;;;6.30;99.90;;;;;;5032841;28;20486;-83
2021/11/18 05:25:26;;;;;;;41.07;16.70;;;6.60;99.90;;;;;;5032201;28;20459;-82
2021/11/18 05:27:53;;;;;;;48.70;17.13;;;6.50;99.90;;;;;;5034205;28;20452;-80
2021/11/18 05:30:27;;;;;;;39.30;17.00;;;6.50;99.90;;;;;;5032778;28;20459;-80
2021/11/18 05:32:55;;;;;;;36.20;15.97;;;6.60;99.90;;;;;;5025440;28;20479;-80
2021/11/18 05:35:23;;;;;;;40.13;15.73;;;6.60;99.90;;;;;;5033861;28;20461;-79
2021/11/18 05:37:49;;;;;;;36.13;16.80;;;6.70;99.90;;;;;;5027312;28;20467;-82
2021/11/18 05:40:16;;;;;;;54.13;16.13;;;6.70;99.90;;;;;;5033605;28;20452;-78
2021/11/18 05:42:44;;;;;;;39.50;15.77;;;6.70;99.90;;;;;;5032181;28;20490;-79
2021/11/18 05:45:13;;;;;;;46.53;17.37;;;6.80;99.90;;;;;;5014729;28;20461;-78
2021/11/18 05:47:42;;;;;;;40.03;16.40;;;6.80;99.90;;;;;;5023856;28;20467;-78
2021/11/18 05:50:10;;;;;;;40.73;15.60;;;6.80;99.90;;;;;;5031937;28;20463;-78
2021/11/18 05:52:37;;;;;;;47.10;17.50;;;6.90;99.90;;;;;;5027927;28;20483;-79
2021/11/18 05:55:05;;;;;;;41.07;16.93;;;6.90;99.90;;;;;;5032448;28;20462;-79
2021/11/18 05:57:32;;;;;;;40.83;17.20;;;6.90;99.90;;;;;;5032991;28;20494;-79
2021/11/18 05:59:59;;;;;;;39.93;15.40;;;6.90;99.90;;;;;;5032784;28;20450;-79
2021/11/18 06:02:26;;;;;;;41.77;18.17;;;6.90;99.90;;;;;;5032248;28;20483;-79
2021/11/18 06:04:54;;;;;;;34.53;14.43;;;6.90;99.90;;;;;;5033641;28;20458;-79
2021/11/18 06:07:21;;;;;;;39.20;17.60;;;6.90;99.90;;;;;;5025434;28;20463;-79
2021/11/18 06:09:48;;;;;;;43.07;15.33;;;7.00;99.90;;;;;;5033395;28;20538;-79
2021/11/18 06:12:16;;;;;;;42.67;18.13;;;7.00;99.90;;;;;;5033434;28;20578;-80
2021/11/18 06:14:43;;;;;;;35.53;15.17;;;7.00;99.90;;;;;;5036990;28;20460;-78
2021/11/18 06:17:10;;;;;;;47.20;16.83;;;7.10;99.90;;;;;;5041563;28;20467;-79
2021/11/18 06:19:37;;;;;;;39.83;15.30;;;7.10;99.90;;;;;;5035714;28;20459;-79
2021/11/18 06:22:05;;;;;;;38.07;17.73;;;7.10;99.90;;;;;;5035428;28;20486;-79
2021/11/18 06:24:32;;;;;;;32.83;15.43;;;7.10;99.90;;;;;;5036128;28;20449;-79
2021/11/18 06:26:59;;;;;;;37.93;15.43;;;7.20;99.90;;;;;;5035997;28;20464;-78
2021/11/18 06:29:30;;;;;;;40.60;17.23;;;7.20;99.90;;;;;;5029545;28;20460;-78
2021/11/18 06:31:58;;;;;;;41.53;19.03;;;7.20;99.90;;;;;;5036003;28;20507;-78
2021/11/18 06:34:25;;;;;;;38.77;17.57;;;7.20;99.90;;;;;;5038373;28;20461;-78
2021/11/18 06:36:52;;;;;;;35.80;16.20;;;7.20;99.90;;;;;;5038231;28;20459;-78
2021/11/18 06:39:22;;;;;;;45.70;17.27;;;7.20;99.90;;;;;;5036179;28;20832;-78
2021/11/18 06:41:49;;;;;;;43.00;17.67;;;7.20;99.90;;;;;;5035618;28;20502;-79
2021/11/18 06:44:17;;;;;;;35.90;17.60;;;7.20;99.90;;;;;;5036580;28;20499;-78
2021/11/18 06:46:44;;;;;;;41.00;17.37;;;7.20;99.90;;;;;;5035355;28;20456;-78
2021/11/18 06:49:11;;;;;;;46.03;17.33;;;7.20;99.90;;;;;;5036107;28;20448;-79
2021/11/18 06:51:41;;;;;;;42.50;17.90;;;7.10;99.90;;;;;;5030072;28;20476;-77
2021/11/18 06:54:19;;;;;;;41.43;17.40;;;7.10;99.90;;;;;;5024368;28;20836;-78
2021/11/18 06:56:47;;;;;;;34.23;16.60;;;7.20;99.90;;;;;;5024757;28;20526;-77
2021/11/18 06:59:15;;;;;;;36.20;15.20;;;7.20;99.90;;;;;;5027183;28;20452;-78
2021/11/18 07:01:45;;;;;;;41.53;17.27;;;7.20;99.90;;;;;;5022770;28;21162;-78
2021/11/18 07:04:13;;;;;;;42.17;16.63;;;7.20;99.90;;;;;;5024488;28;20512;-78
2021/11/18 07:06:40;;;;;;;40.50;15.80;;;7.20;99.90;;;;;;5025189;28;20450;-77
2021/11/18 07:09:09;;;;;;;38.03;17.17;;;7.30;99.90;;;;;;5026872;28;20452;-77
2021/11/18 07:11:39;;;;;;;32.93;15.70;;;7.30;99.90;;;;;;5023870;28;20460;-77
2021/11/18 07:14:08;;;;;;;32.90;16.10;;;7.30;99.90;;;;;;5027449;28;20448;-78
2021/11/18 07:16:36;;;;;;;33.87;16.17;;;7.30;99.90;;;;;;5025494;28;20848;-77
2021/11/18 07:19:05;;;;;;;35.37;16.00;;;7.30;99.90;;;;;;5022263;28;20460;-77
2021/11/18 07:21:35;;;;;;;39.17;16.27;;;7.40;99.90;;;;;;5022216;28;20452;-78
2021/11/18 07:24:03;;;;;;;32.67;14.90;;;7.40;99.90;;;;;;5022565;28;20482;-76
2021/11/18 07:26:32;;;;;;;34.50;16.30;;;7.50;99.90;;;;;;5023913;28;21148;-77
2021/11/18 07:28:59;;;;;;;22.93;12.23;;;7.50;99.90;;;;;;5028297;28;20459;-77
2021/11/18 07:31:27;;;;;;;40.63;15.80;;;7.50;99.90;;;;;;5031979;28;20832;-78
2021/11/18 07:33:54;;;;;;;36.10;16.60;;;7.60;99.90;;;;;;5029628;28;20481;-78
2021/11/18 07:36:21;;;;;;;35.73;18.67;;;7.60;99.90;;;;;;5025671;28;20452;-77
2021/11/18 07:38:48;;;;;;;37.37;16.40;;;7.60;99.90;;;;;;5026886;28;20460;-77
2021/11/18 07:41:16;;;;;;;41.40;17.30;;;7.70;99.90;;;;;;5027009;28;20524;-78
2021/11/18 07:43:48;;;;;;;36.10;15.93;;;7.60;99.90;;;;;;5029808;28;20494;-77
2021/11/18 07:46:16;;;;;;;43.80;15.47;;;7.60;99.90;;;;;;5029810;28;20484;-78
2021/11/18 07:48:47;;;;;;;36.50;14.23;;;7.70;99.90;;;;;;5026736;28;20486;-78
2021/11/18 07:51:20;;;;;;;33.33;14.60;;;7.70;99.90;;;;;;5025395;28;20452;-79
2021/11/18 07:53:48;;;;;;;41.47;15.40;;;7.70;99.90;;;;;;5022200;28;20476;-78
2021/11/18 07:56:17;;;;;;;38.50;16.73;;;7.70;99.90;;;;;;5026534;28;20456;-77
2021/11/18 07:58:44;;;;;;;35.00;13.57;;;7.70;99.90;;;;;;5024665;28;20487;-78
2021/11/18 08:01:12;;;;;;;28.17;12.90;;;7.80;99.90;;;;;;5019932;28;20493;-77
2021/11/18 08:03:39;;;;;;;48.00;15.77;;;7.80;99.90;;;;;;5017876;28;20488;-79
2021/11/18 08:06:10;;;;;;;30.90;14.87;;;7.90;99.90;;;;;;5031568;28;20531;-78
2021/11/18 08:08:44;;;;;;;37.00;15.40;;;7.90;99.90;;;;;;5036422;28;20449;-79
2021/11/18 08:11:13;;;;;;;31.33;13.77;;;8.00;99.90;;;;;;5030995;28;20449;-78
2021/11/18 08:13:40;;;;;;;33.10;13.07;;;8.10;99.90;;;;;;5037297;28;20475;-79
2021/11/18 08:16:07;;;;;;;32.03;13.00;;;8.20;99.90;;;;;;5029788;28;20464;-77
2021/11/18 08:18:34;;;;;;;28.70;12.70;;;8.20;99.90;;;;;;5030775;28;20453;-78
2021/11/18 08:21:00;;;;;;;31.83;13.80;;;8.30;99.90;;;;;;5034275;28;20441;-78
2021/11/18 08:23:32;;;;;;;44.10;13.57;;;8.30;99.90;;;;;;5034797;28;20563;-79
2021/11/18 08:25:58;;;;;;;35.20;14.13;;;8.40;99.90;;;;;;5034710;28;20463;-78
2021/11/18 08:28:25;;;;;;;30.20;13.37;;;8.50;99.90;;;;;;5035736;28;20449;-81
2021/11/18 08:30:52;;;;;;;32.00;13.60;;;8.70;99.90;;;;;;5027606;28;20464;-80
2021/11/18 08:33:20;;;;;;;26.23;11.43;;;8.80;99.90;;;;;;5029590;28;20469;-80
2021/11/18 08:35:47;;;;;;;25.97;11.27;;;8.80;99.90;;;;;;5033418;28;20960;-79
2021/11/18 08:38:16;;;;;;;28.83;12.00;;;8.80;99.90;;;;;;5028770;28;20460;-80
2021/11/18 08:40:52;;;;;;;27.77;12.00;;;8.80;99.90;;;;;;5026637;28;20469;-80
2021/11/18 08:43:19;;;;;;;23.70;12.40;;;8.80;99.90;;;;;;5028964;28;20489;-80
2021/11/18 08:45:45;;;;;;;26.20;11.07;;;8.70;99.90;;;;;;5031517;28;20451;-80
2021/11/18 08:48:13;;;;;;;33.13;11.20;;;8.60;99.90;;;;;;5032193;28;20458;-77
2021/11/18 08:50:42;;;;;;;24.70;9.50;;;8.70;99.90;;;;;;5031275;28;20449;-78
2021/11/18 08:53:09;;;;;;;29.73;12.27;;;8.80;99.90;;;;;;5030990;28;20861;-77
2021/11/18 08:55:39;;;;;;;26.37;11.03;;;8.80;99.90;;;;;;5032049;28;20449;-77
2021/11/18 08:58:08;;;;;;;27.50;12.53;;;8.80;99.90;;;;;;5023069;28;20437;-78
2021/11/18 09:00:38;;;;;;;29.17;10.70;;;8.80;99.90;;;;;;5024884;28;20453;-80
2021/11/18 09:03:05;;;;;;;35.40;12.00;;;8.80;99.90;;;;;;5025783;28;20507;-82
2021/11/18 09:05:32;;;;;;;27.40;10.80;;;8.80;99.90;;;;;;5029052;28;20454;-80
2021/11/18 09:08:00;;;;;;;26.30;11.67;;;8.80;99.90;;;;;;5044230;28;20520;-81
2021/11/18 09:10:27;;;;;;;28.07;11.07;;;8.80;99.90;;;;;;5047145;28;20468;-80
2021/11/18 09:12:54;;;;;;;31.93;12.30;;;8.80;99.90;;;;;;5049417;28;20571;-80
2021/11/18 09:15:26;;;;;;;29.17;11.80;;;8.90;99.90;;;;;;5058393;28;20458;-81
2021/11/18 09:17:54;;;;;;;24.43;11.03;;;9.00;99.90;;;;;;5044148;28;20457;-80
2021/11/18 09:20:22;;;;;;;26.93;12.40;;;8.90;99.90;;;;;;5031225;28;20464;-80
2021/11/18 09:22:49;;;;;;;29.13;11.70;;;9.00;99.90;;;;;;5036001;28;20487;-82
2021/11/18 09:25:17;;;;;;;26.93;11.83;;;9.10;99.90;;;;;;5037616;28;20454;-82
2021/11/18 09:27:52;;;;;;;33.40;11.70;;;9.00;99.90;;;;;;5025607;28;20542;-82
2021/11/18 09:30:25;;;;;;;33.80;13.57;;;9.10;99.90;;;;;;5033310;28;20518;-83
2021/11/18 09:32:53;;;;;;;23.13;10.20;;;9.00;99.90;;;;;;5036356;28;20549;-81
2021/11/18 09:35:24;;;;;;;29.37;11.40;;;9.00;99.90;;;;;;5035842;28;20450;-80
2021/11/18 09:37:52;;;;;;;22.30;12.33;;;9.00;99.90;;;;;;5036370;28;20531;-80
2021/11/18 09:40:21;;;;;;;36.50;13.37;;;9.10;99.90;;;;;;5036424;28;20463;-82
2021/11/18 09:43:26;;;;;;;25.37;11.43;;;9.20;99.90;;;;;;5035449;28;20547;-82
2021/11/18 09:46:06;;;;;;;28.60;14.97;;;9.40;99.90;;;;;;5039707;28;20439;-82
2021/11/18 09:48:54;;;;;;;27.33;11.57;;;9.50;99.90;;;;;;5037199;28;20566;-82
2021/11/18 09:51:41;;;;;;;30.73;12.00;;;9.60;99.90;;;;;;5035676;28;20834;-81
2021/11/18 09:54:22;;;;;;;24.70;9.70;;;9.70;99.90;;;;;;5034178;28;20436;-80
2021/11/18 09:57:09;;;;;;;31.67;13.50;;;9.80;99.90;;;;;;5037764;28;20452;-81
2021/11/18 09:59:44;;;;;;;23.60;9.90;;;9.80;99.90;;;;;;5023368;28;20444;-80
2021/11/18 10:02:49;;;;;;;24.97;10.50;;;9.80;99.90;;;;;;5036767;28;20530;-78
2021/11/18 10:05:23;;;;;;;21.37;10.13;;;9.70;99.90;;;;;;5025972;28;20489;-80
2021/11/18 10:07:54;;;;;;;25.20;10.50;;;9.70;99.90;;;;;;5037603;28;20455;-80
2021/11/18 10:10:27;;;;;;;25.83;10.47;;;9.70;99.90;;;;;;5035389;28;20488;-77
2021/11/18 10:13:18;;;;;;;26.20;9.83;;;9.90;99.90;;;;;;5034899;28;20573;-78
2021/11/18 10:15:48;;;;;;;29.40;11.07;;;10.10;99.90;;;;;;5031032;28;20448;-78
2021/11/18 10:18:19;;;;;;;24.20;10.10;;;10.10;99.90;;;;;;5036428;28;20449;-78
2021/11/18 10:20:51;;;;;;;25.00;9.80;;;10.30;99.90;;;;;;5034061;28;20547;-77
2021/11/18 10:23:24;;;;;;;22.40;10.37;;;10.50;99.90;;;;;;5032814;28;20480;-78
2021/11/18 10:25:55;;;;;;;28.40;10.80;;;10.70;99.90;;;;;;5030415;28;20480;-80
2021/11/18 10:28:36;;;;;;;27.03;9.70;;;10.80;99.90;;;;;;5031803;28;20823;-80
2021/11/18 10:31:17;;;;;;;26.30;9.00;;;10.90;99.90;;;;;;5029728;28;20453;-80
2021/11/18 10:33:55;;;;;;;25.67;9.57;;;11.10;99.90;;;;;;5028408;28;20469;-79
2021/11/18 10:36:43;;;;;;;25.33;9.33;;;11.20;99.90;;;;;;5035113;28;20538;-80
2021/11/18 10:39:19;;;;;;;29.30;10.30;;;11.70;99.90;;;;;;5023811;28;20773;-79
2021/11/18 10:41:54;;;;;;;24.60;8.27;;;12.20;99.90;;;;;;5030946;28;20460;-79
2021/11/18 10:44:24;;;;;;;21.53;8.10;;;12.60;99.90;;;;;;5035505;28;20489;-80
2021/11/18 10:47:00;;;;;;;20.13;7.70;;;12.80;99.90;;;;;;5033984;28;20460;-80
2021/11/18 10:49:35;;;;;;;23.47;9.20;;;12.90;99.90;;;;;;5029939;28;20453;-81
2021/11/18 10:52:06;;;;;;;25.60;8.17;;;12.80;99.90;;;;;;5035198;28;20460;-80
2021/11/18 10:54:43;;;;;;;22.90;9.30;;;12.40;99.90;;;;;;5033391;28;20542;-79
2021/11/18 10:57:17;;;;;;;20.40;9.73;;;12.40;99.90;;;;;;5031588;28;20467;-80
2021/11/18 10:59:46;;;;;;;23.40;9.97;;;12.40;99.90;;;;;;5035241;28;20455;-80
2021/11/18 11:02:25;;;;;;;27.83;9.20;;;12.50;99.90;;;;;;5029946;28;20475;-80
2021/11/18 11:04:55;;;;;;;22.43;8.27;;;12.40;99.90;;;;;;5034573;28;20490;-80
2021/11/18 11:07:39;;;;;;;22.10;9.00;;;12.60;99.90;;;;;;5031977;28;20452;-80
2021/11/18 11:10:12;;;;;;;19.80;7.73;;;12.90;99.90;;;;;;5028513;28;20473;-80
2021/11/18 11:12:44;;;;;;;24.53;9.73;;;13.40;99.90;;;;;;5033293;28;20473;-78
2021/11/18 11:15:37;;;;;;;24.63;8.90;;;13.80;99.90;;;;;;5028283;28;20442;-81
2021/11/18 11:18:20;;;;;;;21.30;7.50;;;14.50;99.90;;;;;;5029285;28;20456;-80
2021/11/18 11:20:54;;;;;;;24.57;8.60;;;15.00;99.90;;;;;;5030486;28;20460;-80
2021/11/18 11:23:29;;;;;;;18.10;8.20;;;16.10;99.90;;;;;;5028778;28;20473;-78
2021/11/18 11:26:25;;;;;;;24.00;9.20;;;16.50;99.90;;;;;;5032975;28;20960;-78
2021/11/18 11:28:59;;;;;;;22.23;9.30;;;16.80;99.90;;;;;;5028465;28;20456;-79
2021/11/18 11:31:50;;;;;;;27.43;8.50;;;17.00;99.90;;;;;;5030666;28;20449;-80
2021/11/18 11:34:49;;;;;;;22.00;7.97;;;16.80;99.90;;;;;;5022331;28;20468;-80
2021/11/18 11:37:47;;;;;;;20.60;7.63;;;16.40;99.90;;;;;;5027823;28;20459;-77
2021/11/18 11:40:21;;;;;;;25.93;9.13;;;16.40;99.90;;;;;;5026899;28;20459;-77
2021/11/18 11:43:13;;;;;;;25.50;9.27;;;16.40;99.90;;;;;;5031109;28;20488;-78
2021/11/18 11:45:45;;;;;;;20.40;8.43;;;16.60;99.90;;;;;;5028986;28;21024;-78
2021/11/18 11:48:54;;;;;;;23.63;8.10;;;17.00;99.90;;;;;;5032042;28;20965;-80
2021/11/18 11:51:33;;;;;;;19.63;8.70;;;18.20;99.90;;;;;;5033770;28;20976;-80
2021/11/18 11:54:34;;;;;;;18.83;8.47;;;18.10;99.90;;;;;;5024718;28;20464;-82
2021/11/18 11:57:05;;;;;;;24.50;8.70;;;18.00;99.90;;;;;;4996615;28;20825;-82
2021/11/18 11:59:37;;;;;;;19.20;7.87;;;17.80;99.90;;;;;;5033290;28;20529;-79
2021/11/18 12:02:08;;;;;;;21.03;8.93;;;17.70;99.90;;;;;;5035162;28;20470;-81
2021/11/18 12:04:53;;;;;;;23.50;8.80;;;17.50;99.90;;;;;;5032190;28;20486;-81
2021/11/18 12:07:23;;;;;;;23.73;8.20;;;16.60;99.90;;;;;;5024416;28;20536;-81
2021/11/18 12:10:02;;;;;;;19.57;7.97;;;16.20;99.90;;;;;;5034811;28;20447;-82
2021/11/18 12:12:36;;;;;;;19.73;7.80;;;15.00;99.90;;;;;;5032845;28;20479;-81
2021/11/18 12:15:06;;;;;;;25.57;8.00;;;15.20;99.90;;;;;;5034828;28;20452;-80
2021/11/18 12:17:38;;;;;;;25.77;7.37;;;15.00;99.90;;;;;;5034873;28;20836;-81
2021/11/18 12:20:08;;;;;;;25.07;7.70;;;14.80;99.90;;;;;;5036488;28;20996;-79
2021/11/18 12:22:53;;;;;;;22.17;7.20;;;15.10;99.90;;;;;;5035155;28;20473;-78
2021/11/18 12:25:36;;;;;;;14.93;5.67;;;14.90;99.90;;;;;;5023514;28;20495;-79
2021/11/18 12:28:18;;;;;;;16.63;6.10;;;13.70;99.90;;;;;;5028424;28;20448;-78
2021/11/18 12:31:35;;;;;;;23.83;6.10;;;13.20;99.90;;;;;;5030277;28;20471;-78
2021/11/18 12:34:07;;;;;;;18.90;5.20;;;13.80;99.90;;;;;;4997618;28;20460;-79
2021/11/18 12:36:56;;;;;;;31.30;8.23;;;14.40;99.90;;;;;;5028310;28;20953;-77
2021/11/18 12:39:44;;;;;;;21.93;5.63;;;13.70;99.90;;;;;;5031344;28;20460;-79
2021/11/18 12:42:50;;;;;;;17.63;5.37;;;13.60;99.90;;;;;;5026461;28;20494;-79
2021/11/18 12:45:44;;;;;;;18.63;5.43;;;13.20;99.90;;;;;;5002810;28;20510;-77
2021/11/18 12:48:15;;;;;;;25.30;5.73;;;13.10;99.90;;;;;;5031106;28;20454;-77
2021/11/18 12:50:53;;;;;;;23.50;6.03;;;12.90;99.90;;;;;;5028612;28;20464;-78
2021/11/18 12:53:31;;;;;;;25.97;5.80;;;12.90;99.90;;;;;;5029443;28;20815;-79
2021/11/18 12:56:18;;;;;;;18.73;4.70;;;13.00;99.90;;;;;;5026083;28;20451;-78